sensor_id;sensor_type;location;lat;lon;timestamp;P1;durP1;ratioP1;P2;durP2;ratioP2
59734;SDS011;64362;45.620;4.920;2024-02-14T00:01:33;26.55;;;9.85;;
59734;SDS011;64362;45.620;4.920;2024-02-14T00:04:00;31.08;;;10.82;;
59734;SDS011;64362;45.620;4.920;2024-02-14T00:06:26;31.00;;;10.63;;
59734;SDS011;64362;45.620;4.920;2024-02-14T00:08:52;30.05;;;11.23;;
59734;SDS011;64362;45.620;4.920;2024-02-14T00:11:17;27.55;;;9.82;;
59734;SDS011;64362;45.620;4.920;2024-02-14T00:13:43;27.60;;;9.50;;
59734;SDS011;64362;45.620;4.920;2024-02-14T00:16:08;28.60;;;10.07;;
59734;SDS011;64362;45.620;4.920;2024-02-14T00:18:34;24.58;;;9.90;;
59734;SDS011;64362;45.620;4.920;2024-02-14T00:21:00;27.83;;;10.13;;
59734;SDS011;64362;45.620;4.920;2024-02-14T00:23:25;27.42;;;9.93;;
59734;SDS011;64362;45.620;4.920;2024-02-14T00:25:51;29.98;;;10.55;;
59734;SDS011;64362;45.620;4.920;2024-02-14T00:28:16;30.73;;;10.27;;
59734;SDS011;64362;45.620;4.920;2024-02-14T00:30:42;27.17;;;9.63;;
59734;SDS011;64362;45.620;4.920;2024-02-14T00:33:08;26.40;;;9.55;;
59734;SDS011;64362;45.620;4.920;2024-02-14T00:35:33;30.58;;;10.35;;
59734;SDS011;64362;45.620;4.920;2024-02-14T00:37:59;26.75;;;9.43;;
59734;SDS011;64362;45.620;4.920;2024-02-14T00:40:24;26.13;;;9.15;;
59734;SDS011;64362;45.620;4.920;2024-02-14T00:42:50;21.73;;;8.43;;
59734;SDS011;64362;45.620;4.920;2024-02-14T00:45:15;26.02;;;9.68;;
59734;SDS011;64362;45.620;4.920;2024-02-14T00:47:40;27.77;;;9.40;;
59734;SDS011;64362;45.620;4.920;2024-02-14T00:50:06;25.88;;;9.32;;
59734;SDS011;64362;45.620;4.920;2024-02-14T00:52:32;28.77;;;10.18;;
59734;SDS011;64362;45.620;4.920;2024-02-14T00:54:57;28.80;;;10.23;;
59734;SDS011;64362;45.620;4.920;2024-02-14T00:57:23;25.45;;;9.25;;
59734;SDS011;64362;45.620;4.920;2024-02-14T00:59:51;24.77;;;9.50;;
59734;SDS011;64362;45.620;4.920;2024-02-14T01:02:17;28.55;;;9.32;;
59734;SDS011;64362;45.620;4.920;2024-02-14T01:04:43;28.05;;;10.13;;
59734;SDS011;64362;45.620;4.920;2024-02-14T01:07:08;29.35;;;9.50;;
59734;SDS011;64362;45.620;4.920;2024-02-14T01:09:34;26.75;;;10.10;;
59734;SDS011;64362;45.620;4.920;2024-02-14T01:12:01;23.58;;;9.13;;
59734;SDS011;64362;45.620;4.920;2024-02-14T01:14:27;21.20;;;8.10;;
59734;SDS011;64362;45.620;4.920;2024-02-14T01:16:53;27.30;;;10.23;;
59734;SDS011;64362;45.620;4.920;2024-02-14T01:19:19;27.02;;;9.27;;
59734;SDS011;64362;45.620;4.920;2024-02-14T01:21:44;20.45;;;9.00;;
59734;SDS011;64362;45.620;4.920;2024-02-14T01:24:13;26.08;;;9.98;;
59734;SDS011;64362;45.620;4.920;2024-02-14T01:26:39;25.15;;;9.45;;
59734;SDS011;64362;45.620;4.920;2024-02-14T01:29:05;24.83;;;9.00;;
59734;SDS011;64362;45.620;4.920;2024-02-14T01:31:31;24.90;;;8.90;;
59734;SDS011;64362;45.620;4.920;2024-02-14T01:33:58;21.73;;;8.43;;
59734;SDS011;64362;45.620;4.920;2024-02-14T01:36:24;22.65;;;8.32;;
59734;SDS011;64362;45.620;4.920;2024-02-14T01:38:49;22.15;;;7.82;;
59734;SDS011;64362;45.620;4.920;2024-02-14T01:41:15;27.40;;;8.55;;
59734;SDS011;64362;45.620;4.920;2024-02-14T01:43:40;18.50;;;7.35;;
59734;SDS011;64362;45.620;4.920;2024-02-14T01:46:06;22.63;;;8.38;;
59734;SDS011;64362;45.620;4.920;2024-02-14T01:48:32;17.38;;;7.78;;
59734;SDS011;64362;45.620;4.920;2024-02-14T01:50:59;20.38;;;8.55;;
59734;SDS011;64362;45.620;4.920;2024-02-14T01:53:25;19.70;;;7.95;;
59734;SDS011;64362;45.620;4.920;2024-02-14T01:55:51;18.92;;;7.80;;
59734;SDS011;64362;45.620;4.920;2024-02-14T01:58:17;23.50;;;8.15;;
59734;SDS011;64362;45.620;4.920;2024-02-14T02:00:43;20.67;;;7.90;;
59734;SDS011;64362;45.620;4.920;2024-02-14T02:03:11;19.45;;;7.53;;
59734;SDS011;64362;45.620;4.920;2024-02-14T02:05:36;19.77;;;7.30;;
59734;SDS011;64362;45.620;4.920;2024-02-14T02:08:02;20.02;;;7.07;;
59734;SDS011;64362;45.620;4.920;2024-02-14T02:10:28;22.85;;;7.70;;
59734;SDS011;64362;45.620;4.920;2024-02-14T02:12:58;20.27;;;7.95;;
59734;SDS011;64362;45.620;4.920;2024-02-14T02:15:25;21.15;;;8.07;;
59734;SDS011;64362;45.620;4.920;2024-02-14T02:17:51;19.73;;;7.60;;
59734;SDS011;64362;45.620;4.920;2024-02-14T02:20:18;17.63;;;7.63;;
59734;SDS011;64362;45.620;4.920;2024-02-14T02:22:47;18.98;;;7.22;;
59734;SDS011;64362;45.620;4.920;2024-02-14T02:25:15;18.20;;;7.18;;
59734;SDS011;64362;45.620;4.920;2024-02-14T02:27:41;19.70;;;7.10;;
59734;SDS011;64362;45.620;4.920;2024-02-14T02:30:06;20.23;;;8.05;;
59734;SDS011;64362;45.620;4.920;2024-02-14T02:32:33;20.08;;;7.50;;
59734;SDS011;64362;45.620;4.920;2024-02-14T02:34:59;20.35;;;7.70;;
59734;SDS011;64362;45.620;4.920;2024-02-14T02:37:27;17.25;;;6.80;;
59734;SDS011;64362;45.620;4.920;2024-02-14T02:39:55;20.38;;;7.47;;
59734;SDS011;64362;45.620;4.920;2024-02-14T02:42:21;20.13;;;7.40;;
59734;SDS011;64362;45.620;4.920;2024-02-14T02:44:48;23.05;;;7.95;;
59734;SDS011;64362;45.620;4.920;2024-02-14T02:47:14;20.77;;;7.20;;
59734;SDS011;64362;45.620;4.920;2024-02-14T02:49:42;16.10;;;7.30;;
59734;SDS011;64362;45.620;4.920;2024-02-14T02:52:09;20.55;;;7.15;;
59734;SDS011;64362;45.620;4.920;2024-02-14T02:54:37;18.33;;;7.10;;
59734;SDS011;64362;45.620;4.920;2024-02-14T02:57:07;15.80;;;6.88;;
59734;SDS011;64362;45.620;4.920;2024-02-14T02:59:33;17.33;;;7.20;;
59734;SDS011;64362;45.620;4.920;2024-02-14T03:02:00;16.77;;;6.60;;
59734;SDS011;64362;45.620;4.920;2024-02-14T03:04:26;16.88;;;6.70;;
59734;SDS011;64362;45.620;4.920;2024-02-14T03:06:51;17.15;;;7.07;;
59734;SDS011;64362;45.620;4.920;2024-02-14T03:09:16;16.40;;;6.00;;
59734;SDS011;64362;45.620;4.920;2024-02-14T03:11:46;15.20;;;6.85;;
59734;SDS011;64362;45.620;4.920;2024-02-14T03:14:12;18.10;;;7.43;;
59734;SDS011;64362;45.620;4.920;2024-02-14T03:16:38;18.92;;;7.82;;
59734;SDS011;64362;45.620;4.920;2024-02-14T03:19:04;16.20;;;6.53;;
59734;SDS011;64362;45.620;4.920;2024-02-14T03:21:30;15.23;;;5.88;;
59734;SDS011;64362;45.620;4.920;2024-02-14T03:24:03;14.60;;;6.40;;
59734;SDS011;64362;45.620;4.920;2024-02-14T03:26:30;13.10;;;5.95;;
59734;SDS011;64362;45.620;4.920;2024-02-14T03:28:59;15.73;;;5.95;;
59734;SDS011;64362;45.620;4.920;2024-02-14T03:31:25;19.10;;;7.13;;
59734;SDS011;64362;45.620;4.920;2024-02-14T03:33:51;18.58;;;7.38;;
59734;SDS011;64362;45.620;4.920;2024-02-14T03:36:17;12.40;;;6.13;;
59734;SDS011;64362;45.620;4.920;2024-02-14T03:38:43;16.27;;;6.32;;
59734;SDS011;64362;45.620;4.920;2024-02-14T03:41:09;16.45;;;6.90;;
59734;SDS011;64362;45.620;4.920;2024-02-14T03:43:34;15.20;;;6.45;;
59734;SDS011;64362;45.620;4.920;2024-02-14T03:46:00;13.73;;;6.20;;
59734;SDS011;64362;45.620;4.920;2024-02-14T03:48:25;13.77;;;6.10;;
59734;SDS011;64362;45.620;4.920;2024-02-14T03:50:51;13.38;;;5.75;;
59734;SDS011;64362;45.620;4.920;2024-02-14T03:53:17;14.65;;;5.80;;
59734;SDS011;64362;45.620;4.920;2024-02-14T03:55:42;13.35;;;6.00;;
59734;SDS011;64362;45.620;4.920;2024-02-14T03:58:08;11.80;;;5.53;;
59734;SDS011;64362;45.620;4.920;2024-02-14T04:00:34;14.38;;;6.18;;
59734;SDS011;64362;45.620;4.920;2024-02-14T04:03:00;13.52;;;6.03;;
59734;SDS011;64362;45.620;4.920;2024-02-14T04:05:27;14.35;;;6.03;;
59734;SDS011;64362;45.620;4.920;2024-02-14T04:07:54;14.85;;;6.20;;
59734;SDS011;64362;45.620;4.920;2024-02-14T04:10:19;14.45;;;6.60;;
59734;SDS011;64362;45.620;4.920;2024-02-14T04:12:45;14.25;;;6.15;;
59734;SDS011;64362;45.620;4.920;2024-02-14T04:15:11;15.10;;;5.75;;
59734;SDS011;64362;45.620;4.920;2024-02-14T04:17:37;13.60;;;5.97;;
59734;SDS011;64362;45.620;4.920;2024-02-14T04:20:04;12.60;;;6.00;;
59734;SDS011;64362;45.620;4.920;2024-02-14T04:22:30;14.63;;;5.60;;
59734;SDS011;64362;45.620;4.920;2024-02-14T04:24:55;14.15;;;6.22;;
59734;SDS011;64362;45.620;4.920;2024-02-14T04:27:21;13.57;;;5.90;;
59734;SDS011;64362;45.620;4.920;2024-02-14T04:29:47;11.68;;;5.88;;
59734;SDS011;64362;45.620;4.920;2024-02-14T04:32:13;13.77;;;5.85;;
59734;SDS011;64362;45.620;4.920;2024-02-14T04:34:39;13.38;;;5.85;;
59734;SDS011;64362;45.620;4.920;2024-02-14T04:37:05;12.40;;;5.20;;
59734;SDS011;64362;45.620;4.920;2024-02-14T04:39:37;12.88;;;5.15;;
59734;SDS011;64362;45.620;4.920;2024-02-14T04:42:03;14.30;;;5.80;;
59734;SDS011;64362;45.620;4.920;2024-02-14T04:44:29;12.15;;;5.40;;
59734;SDS011;64362;45.620;4.920;2024-02-14T04:46:56;12.80;;;5.30;;
59734;SDS011;64362;45.620;4.920;2024-02-14T04:49:24;11.50;;;5.25;;
59734;SDS011;64362;45.620;4.920;2024-02-14T04:51:50;14.00;;;5.50;;
59734;SDS011;64362;45.620;4.920;2024-02-14T04:54:16;12.77;;;5.97;;
59734;SDS011;64362;45.620;4.920;2024-02-14T04:56:41;10.90;;;5.18;;
59734;SDS011;64362;45.620;4.920;2024-02-14T04:59:07;9.70;;;4.53;;
59734;SDS011;64362;45.620;4.920;2024-02-14T05:01:34;11.40;;;5.15;;
59734;SDS011;64362;45.620;4.920;2024-02-14T05:04:00;10.75;;;5.00;;
59734;SDS011;64362;45.620;4.920;2024-02-14T05:06:25;11.05;;;5.05;;
59734;SDS011;64362;45.620;4.920;2024-02-14T05:08:51;9.68;;;4.95;;
59734;SDS011;64362;45.620;4.920;2024-02-14T05:11:17;8.70;;;4.43;;
59734;SDS011;64362;45.620;4.920;2024-02-14T05:13:43;12.32;;;4.75;;
59734;SDS011;64362;45.620;4.920;2024-02-14T05:16:09;11.70;;;4.97;;
59734;SDS011;64362;45.620;4.920;2024-02-14T05:18:38;10.18;;;4.63;;
59734;SDS011;64362;45.620;4.920;2024-02-14T05:21:07;9.70;;;4.63;;
59734;SDS011;64362;45.620;4.920;2024-02-14T05:23:33;9.02;;;4.35;;
59734;SDS011;64362;45.620;4.920;2024-02-14T05:26:00;12.93;;;5.00;;
59734;SDS011;64362;45.620;4.920;2024-02-14T05:28:27;9.90;;;4.28;;
59734;SDS011;64362;45.620;4.920;2024-02-14T05:30:56;12.20;;;4.93;;
59734;SDS011;64362;45.620;4.920;2024-02-14T05:33:22;10.43;;;5.13;;
59734;SDS011;64362;45.620;4.920;2024-02-14T05:35:48;11.05;;;4.97;;
59734;SDS011;64362;45.620;4.920;2024-02-14T05:38:14;9.23;;;4.32;;
59734;SDS011;64362;45.620;4.920;2024-02-14T05:40:40;8.75;;;4.35;;
59734;SDS011;64362;45.620;4.920;2024-02-14T05:43:05;9.75;;;4.30;;
59734;SDS011;64362;45.620;4.920;2024-02-14T05:45:32;8.57;;;3.90;;
59734;SDS011;64362;45.620;4.920;2024-02-14T05:47:58;10.13;;;4.03;;
59734;SDS011;64362;45.620;4.920;2024-02-14T05:50:23;9.27;;;3.85;;
59734;SDS011;64362;45.620;4.920;2024-02-14T05:52:49;7.65;;;4.28;;
59734;SDS011;64362;45.620;4.920;2024-02-14T05:55:14;8.50;;;4.63;;
59734;SDS011;64362;45.620;4.920;2024-02-14T05:57:40;9.25;;;4.28;;
59734;SDS011;64362;45.620;4.920;2024-02-14T06:00:06;8.43;;;3.95;;
59734;SDS011;64362;45.620;4.920;2024-02-14T06:02:36;7.13;;;4.20;;
59734;SDS011;64362;45.620;4.920;2024-02-14T06:05:02;8.43;;;4.03;;
59734;SDS011;64362;45.620;4.920;2024-02-14T06:07:28;9.80;;;4.55;;
59734;SDS011;64362;45.620;4.920;2024-02-14T06:09:53;8.65;;;4.03;;
59734;SDS011;64362;45.620;4.920;2024-02-14T06:12:19;8.57;;;4.03;;
59734;SDS011;64362;45.620;4.920;2024-02-14T06:14:47;8.63;;;4.03;;
59734;SDS011;64362;45.620;4.920;2024-02-14T06:17:14;8.00;;;3.97;;
59734;SDS011;64362;45.620;4.920;2024-02-14T06:19:39;8.73;;;4.05;;
59734;SDS011;64362;45.620;4.920;2024-02-14T06:22:05;8.98;;;4.18;;
59734;SDS011;64362;45.620;4.920;2024-02-14T06:24:30;8.45;;;4.03;;
59734;SDS011;64362;45.620;4.920;2024-02-14T06:26:56;7.90;;;3.63;;
59734;SDS011;64362;45.620;4.920;2024-02-14T06:29:21;8.30;;;3.58;;
59734;SDS011;64362;45.620;4.920;2024-02-14T06:31:47;8.80;;;3.90;;
59734;SDS011;64362;45.620;4.920;2024-02-14T06:34:12;8.70;;;3.33;;
59734;SDS011;64362;45.620;4.920;2024-02-14T06:36:38;7.95;;;3.80;;
59734;SDS011;64362;45.620;4.920;2024-02-14T06:39:04;8.27;;;3.80;;
59734;SDS011;64362;45.620;4.920;2024-02-14T06:41:29;8.05;;;3.90;;
59734;SDS011;64362;45.620;4.920;2024-02-14T06:43:55;7.05;;;3.33;;
59734;SDS011;64362;45.620;4.920;2024-02-14T06:46:20;6.97;;;3.67;;
59734;SDS011;64362;45.620;4.920;2024-02-14T06:48:46;6.88;;;3.45;;
59734;SDS011;64362;45.620;4.920;2024-02-14T06:51:11;6.30;;;3.67;;
59734;SDS011;64362;45.620;4.920;2024-02-14T06:53:36;6.93;;;3.60;;
59734;SDS011;64362;45.620;4.920;2024-02-14T06:56:02;7.05;;;3.50;;
59734;SDS011;64362;45.620;4.920;2024-02-14T06:58:27;6.85;;;3.60;;
59734;SDS011;64362;45.620;4.920;2024-02-14T07:00:53;6.47;;;3.45;;
59734;SDS011;64362;45.620;4.920;2024-02-14T07:03:18;6.97;;;3.50;;
59734;SDS011;64362;45.620;4.920;2024-02-14T07:05:44;8.25;;;3.65;;
59734;SDS011;64362;45.620;4.920;2024-02-14T07:08:09;7.80;;;3.33;;
59734;SDS011;64362;45.620;4.920;2024-02-14T07:10:35;6.95;;;3.53;;
59734;SDS011;64362;45.620;4.920;2024-02-14T07:13:00;8.55;;;3.50;;
59734;SDS011;64362;45.620;4.920;2024-02-14T07:15:25;5.82;;;3.22;;
59734;SDS011;64362;45.620;4.920;2024-02-14T07:17:53;6.22;;;3.22;;
59734;SDS011;64362;45.620;4.920;2024-02-14T07:20:20;5.65;;;3.20;;
59734;SDS011;64362;45.620;4.920;2024-02-14T07:22:46;6.07;;;2.97;;
59734;SDS011;64362;45.620;4.920;2024-02-14T07:25:13;6.70;;;3.17;;
59734;SDS011;64362;45.620;4.920;2024-02-14T07:27:39;5.07;;;2.95;;
59734;SDS011;64362;45.620;4.920;2024-02-14T07:30:05;5.55;;;3.05;;
59734;SDS011;64362;45.620;4.920;2024-02-14T07:32:31;6.40;;;3.00;;
59734;SDS011;64362;45.620;4.920;2024-02-14T07:34:56;6.97;;;3.28;;
59734;SDS011;64362;45.620;4.920;2024-02-14T07:37:22;5.65;;;3.15;;
59734;SDS011;64362;45.620;4.920;2024-02-14T07:39:47;5.60;;;3.10;;
59734;SDS011;64362;45.620;4.920;2024-02-14T07:42:13;4.93;;;2.78;;
59734;SDS011;64362;45.620;4.920;2024-02-14T07:44:38;5.43;;;3.08;;
59734;SDS011;64362;45.620;4.920;2024-02-14T07:47:04;5.38;;;2.80;;
59734;SDS011;64362;45.620;4.920;2024-02-14T07:49:30;9.18;;;3.30;;
59734;SDS011;64362;45.620;4.920;2024-02-14T07:51:55;9.05;;;3.15;;
59734;SDS011;64362;45.620;4.920;2024-02-14T07:54:21;5.50;;;2.72;;
59734;SDS011;64362;45.620;4.920;2024-02-14T07:56:46;5.45;;;2.88;;
59734;SDS011;64362;45.620;4.920;2024-02-14T07:59:12;5.80;;;2.95;;
59734;SDS011;64362;45.620;4.920;2024-02-14T08:01:37;8.57;;;2.92;;
59734;SDS011;64362;45.620;4.920;2024-02-14T08:04:04;6.63;;;2.72;;
59734;SDS011;64362;45.620;4.920;2024-02-14T08:06:30;5.00;;;2.95;;
59734;SDS011;64362;45.620;4.920;2024-02-14T08:08:55;4.57;;;2.42;;
59734;SDS011;64362;45.620;4.920;2024-02-14T08:11:26;6.15;;;2.80;;
59734;SDS011;64362;45.620;4.920;2024-02-14T08:13:52;4.95;;;2.70;;
59734;SDS011;64362;45.620;4.920;2024-02-14T08:16:18;4.82;;;2.60;;
59734;SDS011;64362;45.620;4.920;2024-02-14T08:18:43;4.97;;;2.60;;
59734;SDS011;64362;45.620;4.920;2024-02-14T08:21:13;4.68;;;2.80;;
59734;SDS011;64362;45.620;4.920;2024-02-14T08:23:39;3.63;;;2.47;;
59734;SDS011;64362;45.620;4.920;2024-02-14T08:26:06;4.28;;;2.50;;
59734;SDS011;64362;45.620;4.920;2024-02-14T08:28:38;5.63;;;2.90;;
59734;SDS011;64362;45.620;4.920;2024-02-14T08:31:09;6.90;;;2.67;;
59734;SDS011;64362;45.620;4.920;2024-02-14T08:33:37;5.88;;;2.85;;
59734;SDS011;64362;45.620;4.920;2024-02-14T08:36:04;5.07;;;3.00;;
59734;SDS011;64362;45.620;4.920;2024-02-14T08:38:30;5.68;;;3.13;;
59734;SDS011;64362;45.620;4.920;2024-02-14T08:40:55;5.47;;;2.97;;
59734;SDS011;64362;45.620;4.920;2024-02-14T08:43:21;5.93;;;3.00;;
59734;SDS011;64362;45.620;4.920;2024-02-14T08:45:47;8.43;;;3.50;;
59734;SDS011;64362;45.620;4.920;2024-02-14T08:48:12;5.10;;;3.17;;
59734;SDS011;64362;45.620;4.920;2024-02-14T08:50:38;4.63;;;2.65;;
59734;SDS011;64362;45.620;4.920;2024-02-14T08:53:03;5.60;;;3.20;;
59734;SDS011;64362;45.620;4.920;2024-02-14T08:55:29;6.43;;;3.33;;
59734;SDS011;64362;45.620;4.920;2024-02-14T08:57:57;4.38;;;3.08;;
59734;SDS011;64362;45.620;4.920;2024-02-14T09:00:23;7.53;;;2.88;;
59734;SDS011;64362;45.620;4.920;2024-02-14T09:02:48;4.75;;;2.80;;
59734;SDS011;64362;45.620;4.920;2024-02-14T09:05:14;5.90;;;3.13;;
59734;SDS011;64362;45.620;4.920;2024-02-14T09:07:42;6.60;;;3.45;;
59734;SDS011;64362;45.620;4.920;2024-02-14T09:10:07;6.47;;;2.60;;
59734;SDS011;64362;45.620;4.920;2024-02-14T09:12:33;5.70;;;3.10;;
59734;SDS011;64362;45.620;4.920;2024-02-14T09:14:58;6.50;;;3.25;;
59734;SDS011;64362;45.620;4.920;2024-02-14T09:17:24;5.18;;;2.75;;
59734;SDS011;64362;45.620;4.920;2024-02-14T09:19:49;6.25;;;3.50;;
59734;SDS011;64362;45.620;4.920;2024-02-14T09:22:16;5.13;;;3.00;;
59734;SDS011;64362;45.620;4.920;2024-02-14T09:24:46;5.95;;;2.88;;
59734;SDS011;64362;45.620;4.920;2024-02-14T09:27:13;6.30;;;2.90;;
59734;SDS011;64362;45.620;4.920;2024-02-14T09:29:38;5.95;;;3.30;;
59734;SDS011;64362;45.620;4.920;2024-02-14T09:32:04;6.43;;;3.28;;
59734;SDS011;64362;45.620;4.920;2024-02-14T09:34:30;7.88;;;3.78;;
59734;SDS011;64362;45.620;4.920;2024-02-14T09:36:56;7.82;;;3.58;;
59734;SDS011;64362;45.620;4.920;2024-02-14T09:39:23;6.25;;;3.85;;
59734;SDS011;64362;45.620;4.920;2024-02-14T09:41:53;5.75;;;3.30;;
59734;SDS011;64362;45.620;4.920;2024-02-14T09:44:20;8.35;;;2.90;;
59734;SDS011;64362;45.620;4.920;2024-02-14T09:46:50;6.85;;;3.15;;
59734;SDS011;64362;45.620;4.920;2024-02-14T09:49:16;5.35;;;3.50;;
59734;SDS011;64362;45.620;4.920;2024-02-14T09:51:44;7.60;;;4.05;;
59734;SDS011;64362;45.620;4.920;2024-02-14T09:54:10;5.22;;;3.20;;
59734;SDS011;64362;45.620;4.920;2024-02-14T09:56:36;5.22;;;3.13;;
59734;SDS011;64362;45.620;4.920;2024-02-14T09:59:01;5.00;;;2.97;;
59734;SDS011;64362;45.620;4.920;2024-02-14T10:01:27;6.90;;;3.28;;
59734;SDS011;64362;45.620;4.920;2024-02-14T10:03:53;5.60;;;3.10;;
59734;SDS011;64362;45.620;4.920;2024-02-14T10:06:19;5.60;;;2.97;;
59734;SDS011;64362;45.620;4.920;2024-02-14T10:08:48;6.80;;;3.35;;
59734;SDS011;64362;45.620;4.920;2024-02-14T10:11:14;4.65;;;2.78;;
59734;SDS011;64362;45.620;4.920;2024-02-14T10:13:40;6.15;;;2.65;;
59734;SDS011;64362;45.620;4.920;2024-02-14T10:16:06;3.63;;;2.65;;
59734;SDS011;64362;45.620;4.920;2024-02-14T10:18:36;4.78;;;2.75;;
59734;SDS011;64362;45.620;4.920;2024-02-14T10:21:02;4.28;;;2.72;;
59734;SDS011;64362;45.620;4.920;2024-02-14T10:23:27;4.75;;;2.78;;
59734;SDS011;64362;45.620;4.920;2024-02-14T10:25:53;4.95;;;2.50;;
59734;SDS011;64362;45.620;4.920;2024-02-14T10:28:20;5.40;;;2.55;;
59734;SDS011;64362;45.620;4.920;2024-02-14T10:30:46;4.95;;;2.55;;
59734;SDS011;64362;45.620;4.920;2024-02-14T10:33:14;4.32;;;2.55;;
59734;SDS011;64362;45.620;4.920;2024-02-14T10:35:40;4.93;;;2.85;;
59734;SDS011;64362;45.620;4.920;2024-02-14T10:38:07;4.43;;;2.63;;
59734;SDS011;64362;45.620;4.920;2024-02-14T10:40:34;4.30;;;2.40;;
59734;SDS011;64362;45.620;4.920;2024-02-14T10:43:01;4.30;;;2.78;;
59734;SDS011;64362;45.620;4.920;2024-02-14T10:45:27;4.78;;;2.67;;
59734;SDS011;64362;45.620;4.920;2024-02-14T10:47:52;5.20;;;2.50;;
59734;SDS011;64362;45.620;4.920;2024-02-14T10:50:18;4.50;;;2.60;;
59734;SDS011;64362;45.620;4.920;2024-02-14T10:52:46;3.85;;;2.55;;
59734;SDS011;64362;45.620;4.920;2024-02-14T10:55:14;5.43;;;2.92;;
59734;SDS011;64362;45.620;4.920;2024-02-14T10:57:41;5.03;;;2.70;;
59734;SDS011;64362;45.620;4.920;2024-02-14T11:00:09;4.25;;;2.65;;
59734;SDS011;64362;45.620;4.920;2024-02-14T11:02:35;7.43;;;3.42;;
59734;SDS011;64362;45.620;4.920;2024-02-14T11:05:02;4.80;;;2.80;;
59734;SDS011;64362;45.620;4.920;2024-02-14T11:07:28;4.05;;;2.78;;
59734;SDS011;64362;45.620;4.920;2024-02-14T11:10:08;5.82;;;3.08;;
59734;SDS011;64362;45.620;4.920;2024-02-14T11:12:34;5.93;;;3.05;;
59734;SDS011;64362;45.620;4.920;2024-02-14T11:15:08;5.25;;;2.85;;
59734;SDS011;64362;45.620;4.920;2024-02-14T11:17:38;4.38;;;2.95;;
59734;SDS011;64362;45.620;4.920;2024-02-14T11:20:17;6.38;;;2.80;;
59734;SDS011;64362;45.620;4.920;2024-02-14T11:22:50;4.63;;;2.67;;
59734;SDS011;64362;45.620;4.920;2024-02-14T11:25:22;5.13;;;3.00;;
59734;SDS011;64362;45.620;4.920;2024-02-14T11:27:49;4.93;;;2.88;;
59734;SDS011;64362;45.620;4.920;2024-02-14T11:30:26;4.18;;;2.70;;
59734;SDS011;64362;45.620;4.920;2024-02-14T11:32:52;6.13;;;3.00;;
59734;SDS011;64362;45.620;4.920;2024-02-14T11:35:18;4.72;;;2.60;;
59734;SDS011;64362;45.620;4.920;2024-02-14T11:37:44;4.32;;;2.30;;
59734;SDS011;64362;45.620;4.920;2024-02-14T11:40:19;4.70;;;2.60;;
59734;SDS011;64362;45.620;4.920;2024-02-14T11:42:44;3.90;;;2.40;;
59734;SDS011;64362;45.620;4.920;2024-02-14T11:45:13;4.50;;;2.28;;
59734;SDS011;64362;45.620;4.920;2024-02-14T11:47:38;4.75;;;2.47;;
59734;SDS011;64362;45.620;4.920;2024-02-14T11:50:05;4.68;;;2.17;;
59734;SDS011;64362;45.620;4.920;2024-02-14T11:52:31;5.18;;;2.58;;
59734;SDS011;64362;45.620;4.920;2024-02-14T11:54:56;6.30;;;2.55;;
59734;SDS011;64362;45.620;4.920;2024-02-14T11:57:25;3.88;;;2.40;;
59734;SDS011;64362;45.620;4.920;2024-02-14T11:59:51;10.43;;;2.60;;
59734;SDS011;64362;45.620;4.920;2024-02-14T12:02:18;9.35;;;2.30;;
59734;SDS011;64362;45.620;4.920;2024-02-14T12:04:44;6.88;;;2.25;;
59734;SDS011;64362;45.620;4.920;2024-02-14T12:07:11;9.18;;;2.90;;
59734;SDS011;64362;45.620;4.920;2024-02-14T12:09:36;4.80;;;2.30;;
59734;SDS011;64362;45.620;4.920;2024-02-14T12:12:02;5.95;;;2.42;;
59734;SDS011;64362;45.620;4.920;2024-02-14T12:14:27;3.90;;;2.28;;
59734;SDS011;64362;45.620;4.920;2024-02-14T12:17:01;5.30;;;2.00;;
59734;SDS011;64362;45.620;4.920;2024-02-14T12:19:32;4.63;;;2.20;;
59734;SDS011;64362;45.620;4.920;2024-02-14T12:21:59;6.88;;;2.53;;
59734;SDS011;64362;45.620;4.920;2024-02-14T12:24:27;5.75;;;1.95;;
59734;SDS011;64362;45.620;4.920;2024-02-14T12:26:53;4.85;;;2.05;;
59734;SDS011;64362;45.620;4.920;2024-02-14T12:29:19;6.82;;;2.22;;
59734;SDS011;64362;45.620;4.920;2024-02-14T12:31:44;4.68;;;2.35;;
59734;SDS011;64362;45.620;4.920;2024-02-14T12:34:11;3.22;;;1.73;;
59734;SDS011;64362;45.620;4.920;2024-02-14T12:36:36;6.55;;;1.83;;
59734;SDS011;64362;45.620;4.920;2024-02-14T12:39:03;4.47;;;2.10;;
59734;SDS011;64362;45.620;4.920;2024-02-14T12:41:29;6.32;;;2.17;;
59734;SDS011;64362;45.620;4.920;2024-02-14T12:43:56;4.60;;;1.77;;
59734;SDS011;64362;45.620;4.920;2024-02-14T12:46:21;4.88;;;2.00;;
59734;SDS011;64362;45.620;4.920;2024-02-14T12:48:47;6.07;;;1.88;;
59734;SDS011;64362;45.620;4.920;2024-02-14T12:51:13;4.05;;;2.08;;
59734;SDS011;64362;45.620;4.920;2024-02-14T12:53:39;4.47;;;1.58;;
59734;SDS011;64362;45.620;4.920;2024-02-14T12:56:04;9.23;;;2.08;;
59734;SDS011;64362;45.620;4.920;2024-02-14T12:58:31;4.95;;;1.70;;
59734;SDS011;64362;45.620;4.920;2024-02-14T13:00:57;4.05;;;1.88;;
59734;SDS011;64362;45.620;4.920;2024-02-14T13:03:24;3.92;;;1.60;;
59734;SDS011;64362;45.620;4.920;2024-02-14T13:05:49;6.50;;;1.90;;
59734;SDS011;64362;45.620;4.920;2024-02-14T13:08:16;7.97;;;1.80;;
59734;SDS011;64362;45.620;4.920;2024-02-14T13:10:42;5.05;;;2.25;;
59734;SDS011;64362;45.620;4.920;2024-02-14T13:13:09;6.50;;;1.85;;
59734;SDS011;64362;45.620;4.920;2024-02-14T13:15:35;6.47;;;2.00;;
59734;SDS011;64362;45.620;4.920;2024-02-14T13:18:01;8.88;;;2.03;;
59734;SDS011;64362;45.620;4.920;2024-02-14T13:20:28;6.10;;;1.65;;
59734;SDS011;64362;45.620;4.920;2024-02-14T13:22:54;7.57;;;2.45;;
59734;SDS011;64362;45.620;4.920;2024-02-14T13:25:19;6.57;;;1.67;;
59734;SDS011;64362;45.620;4.920;2024-02-14T13:27:45;4.72;;;1.83;;
59734;SDS011;64362;45.620;4.920;2024-02-14T13:30:10;5.10;;;1.73;;
59734;SDS011;64362;45.620;4.920;2024-02-14T13:32:36;4.70;;;1.60;;
59734;SDS011;64362;45.620;4.920;2024-02-14T13:35:02;5.03;;;1.70;;
59734;SDS011;64362;45.620;4.920;2024-02-14T13:37:29;4.35;;;1.77;;
59734;SDS011;64362;45.620;4.920;2024-02-14T13:39:56;2.92;;;1.33;;
59734;SDS011;64362;45.620;4.920;2024-02-14T13:42:22;3.60;;;1.23;;
59734;SDS011;64362;45.620;4.920;2024-02-14T13:44:47;3.20;;;1.30;;
59734;SDS011;64362;45.620;4.920;2024-02-14T13:47:13;2.47;;;1.00;;
59734;SDS011;64362;45.620;4.920;2024-02-14T13:49:43;3.40;;;1.40;;
59734;SDS011;64362;45.620;4.920;2024-02-14T13:52:08;4.90;;;1.42;;
59734;SDS011;64362;45.620;4.920;2024-02-14T13:54:34;4.75;;;1.27;;
59734;SDS011;64362;45.620;4.920;2024-02-14T13:57:00;3.28;;;1.20;;
59734;SDS011;64362;45.620;4.920;2024-02-14T13:59:25;4.15;;;1.58;;
59734;SDS011;64362;45.620;4.920;2024-02-14T14:01:51;2.60;;;1.10;;
59734;SDS011;64362;45.620;4.920;2024-02-14T14:04:16;2.10;;;1.30;;
59734;SDS011;64362;45.620;4.920;2024-02-14T14:06:42;3.03;;;1.10;;
59734;SDS011;64362;45.620;4.920;2024-02-14T14:09:07;2.83;;;1.33;;
59734;SDS011;64362;45.620;4.920;2024-02-14T14:11:33;2.33;;;1.00;;
59734;SDS011;64362;45.620;4.920;2024-02-14T14:13:59;2.50;;;1.10;;
59734;SDS011;64362;45.620;4.920;2024-02-14T14:16:25;2.30;;;1.20;;
59734;SDS011;64362;45.620;4.920;2024-02-14T14:18:51;3.13;;;1.30;;
59734;SDS011;64362;45.620;4.920;2024-02-14T14:21:16;2.80;;;1.20;;
59734;SDS011;64362;45.620;4.920;2024-02-14T14:23:42;3.03;;;1.38;;
59734;SDS011;64362;45.620;4.920;2024-02-14T14:26:07;3.78;;;1.42;;
59734;SDS011;64362;45.620;4.920;2024-02-14T14:28:33;7.97;;;1.50;;
59734;SDS011;64362;45.620;4.920;2024-02-14T14:30:58;3.10;;;1.50;;
59734;SDS011;64362;45.620;4.920;2024-02-14T14:33:26;4.85;;;1.52;;
59734;SDS011;64362;45.620;4.920;2024-02-14T14:35:52;5.80;;;1.30;;
59734;SDS011;64362;45.620;4.920;2024-02-14T14:38:18;7.78;;;1.42;;